createdAt,value
2016-10-11T00:00:40.106Z,957.75
2016-10-11T00:01:40.095Z,957.75
2016-10-11T00:02:40.080Z,957.7
2016-10-11T00:03:40.069Z,957.66
2016-10-11T00:04:40.064Z,957.69
2016-10-11T00:05:40.042Z,957.72
2016-10-11T00:06:40.033Z,957.67
2016-10-11T00:07:40.017Z,957.69
2016-10-11T00:08:40.011Z,957.63
2016-10-11T00:09:39.995Z,957.65
2016-10-11T00:10:39.986Z,957.64
2016-10-11T00:11:39.973Z,957.6
2016-10-11T00:12:39.957Z,957.6
2016-10-11T00:13:39.946Z,957.57
2016-10-11T00:14:39.933Z,957.58
2016-10-11T00:15:39.924Z,957.59
2016-10-11T00:16:39.908Z,957.57
2016-10-11T00:17:39.900Z,957.54
2016-10-11T00:18:39.884Z,957.55
2016-10-11T00:19:39.871Z,957.56
2016-10-11T00:20:39.864Z,957.53
2016-10-11T00:21:39.846Z,957.55
2016-10-11T00:22:39.840Z,957.54
2016-10-11T00:23:39.821Z,957.54
2016-10-11T00:24:39.810Z,957.55
2016-10-11T00:25:39.801Z,957.54
2016-10-11T00:26:39.784Z,957.53
2016-10-11T00:27:39.776Z,957.52
2016-10-11T00:28:39.762Z,957.53
2016-10-11T00:29:39.748Z,957.52
2016-10-11T00:30:39.735Z,957.5
2016-10-11T00:31:39.725Z,957.5
2016-10-11T00:32:39.711Z,957.5
2016-10-11T00:33:39.702Z,957.46
2016-10-11T00:34:39.687Z,957.48
2016-10-11T00:35:39.676Z,957.49
2016-10-11T00:36:39.664Z,957.49
2016-10-11T00:37:39.651Z,957.43
2016-10-11T00:38:39.641Z,957.46
2016-10-11T00:39:39.625Z,957.47
2016-10-11T00:40:39.612Z,957.47
2016-10-11T00:41:39.599Z,957.47
2016-10-11T00:42:39.586Z,957.45
2016-10-11T00:43:39.580Z,957.5
2016-10-11T00:44:39.568Z,957.46
2016-10-11T00:45:39.553Z,957.39
2016-10-11T00:46:39.538Z,957.43
2016-10-11T00:47:39.525Z,957.45
2016-10-11T00:48:39.515Z,957.44
2016-10-11T00:49:39.503Z,957.44
2016-10-11T00:50:39.491Z,957.39
2016-10-11T00:51:39.478Z,957.44
2016-10-11T00:52:39.474Z,957.42
2016-10-11T00:53:39.450Z,957.39
2016-10-11T00:54:39.444Z,957.39
2016-10-11T00:55:39.429Z,957.41
2016-10-11T00:56:39.412Z,957.38
2016-10-11T00:57:39.406Z,957.36
2016-10-11T00:58:39.389Z,957.35
2016-10-11T00:59:39.382Z,957.35
2016-10-11T01:00:39.366Z,957.37
2016-10-11T01:01:39.402Z,957.33
2016-10-11T01:02:39.342Z,957.33
2016-10-11T01:03:39.327Z,957.33
2016-10-11T01:04:39.319Z,957.33
2016-10-11T01:05:39.303Z,957.34
2016-10-11T01:06:39.293Z,957.32
2016-10-11T01:07:39.279Z,957.29
2016-10-11T01:08:39.266Z,957.26
2016-10-11T01:09:39.254Z,957.25
2016-10-11T01:10:39.241Z,957.29
2016-10-11T01:11:39.227Z,957.26
2016-10-11T01:12:39.217Z,957.3
2016-10-11T01:13:39.211Z,957.25
2016-10-11T01:14:39.285Z,957.28
2016-10-11T01:15:39.177Z,957.25
2016-10-11T01:16:39.165Z,957.2
2016-10-11T01:17:39.153Z,957.2
2016-10-11T01:18:39.143Z,957.2
2016-10-11T01:19:39.131Z,957.19
2016-10-11T01:20:39.123Z,957.2
2016-10-11T01:21:39.158Z,957.18
2016-10-11T01:22:39.093Z,957.19
2016-10-11T01:23:39.083Z,957.16
2016-10-11T01:24:39.068Z,957.15
2016-10-11T01:25:39.059Z,957.2
2016-10-11T01:26:39.042Z,957.15
2016-10-11T01:27:39.034Z,957.15
2016-10-11T01:28:39.018Z,957.12
2016-10-11T01:29:39.004Z,957.1
2016-10-11T01:30:38.996Z,957.11
2016-10-11T01:31:38.979Z,957.07
2016-10-11T01:32:38.970Z,957.06
2016-10-11T01:33:38.955Z,957.05
2016-10-11T01:34:38.946Z,957.04
2016-10-11T01:35:38.930Z,957.05
2016-10-11T01:36:38.921Z,957.06
2016-10-11T01:37:38.904Z,957.06
2016-10-11T01:38:38.894Z,957.08
2016-10-11T01:39:38.883Z,957.06
2016-10-11T01:40:38.869Z,957.08
2016-10-11T01:41:38.855Z,957.08
2016-10-11T01:42:38.846Z,957.05
2016-10-11T01:43:38.830Z,957.05
2016-10-11T01:44:38.820Z,957.02
2016-10-11T01:45:38.808Z,957.02
2016-10-11T01:46:38.796Z,957.02
2016-10-11T01:47:38.780Z,957
2016-10-11T01:48:38.769Z,957.01
2016-10-11T01:49:38.759Z,957.02
2016-10-11T01:50:38.747Z,957.04
2016-10-11T01:51:38.735Z,957.03
2016-10-11T01:52:38.720Z,957
2016-10-11T01:53:38.707Z,957.06
2016-10-11T01:54:38.694Z,957.02
2016-10-11T01:55:38.683Z,956.99
2016-10-11T01:56:38.670Z,956.93
2016-10-11T01:57:38.657Z,956.99
2016-10-11T01:58:38.644Z,956.95
2016-10-11T01:59:38.631Z,956.93
2016-10-11T02:00:38.625Z,956.92
2016-10-11T02:01:38.607Z,956.89
2016-10-11T02:02:38.595Z,956.89
2016-10-11T02:03:38.581Z,956.93
2016-10-11T02:04:38.570Z,956.92
2016-10-11T02:05:38.557Z,956.94
2016-10-11T02:06:38.543Z,956.92
2016-10-11T02:07:38.537Z,956.9
2016-10-11T02:08:38.521Z,956.89
2016-10-11T02:09:38.505Z,956.85
2016-10-11T02:10:38.494Z,956.84
2016-10-11T02:11:38.484Z,956.87
2016-10-11T02:12:38.473Z,956.85
2016-10-11T02:13:38.458Z,956.88
2016-10-11T02:14:38.444Z,956.92
2016-10-11T02:15:38.430Z,956.92
2016-10-11T02:16:38.422Z,956.89
2016-10-11T02:17:38.410Z,956.9
2016-10-11T02:18:38.396Z,956.9
2016-10-11T02:19:38.380Z,956.88
2016-10-11T02:20:38.369Z,956.87
2016-10-11T02:21:38.359Z,956.89
2016-10-11T02:22:38.345Z,956.83
2016-10-11T02:23:38.330Z,956.8
2016-10-11T02:24:38.317Z,956.81
2016-10-11T02:25:38.309Z,956.8
2016-10-11T02:26:38.297Z,956.76
2016-10-11T02:27:38.279Z,956.77
2016-10-11T02:28:38.270Z,956.76
2016-10-11T02:29:38.259Z,956.77
2016-10-11T02:30:38.242Z,956.72
2016-10-11T02:31:38.232Z,956.7
2016-10-11T02:32:38.223Z,956.73
2016-10-11T02:33:38.210Z,956.71
2016-10-11T02:34:38.191Z,956.72
2016-10-11T02:35:38.184Z,956.73
2016-10-11T02:36:38.168Z,956.67
2016-10-11T02:37:38.157Z,956.65
2016-10-11T02:38:38.147Z,956.68
2016-10-11T02:39:38.131Z,956.68
2016-10-11T02:40:38.121Z,956.67
2016-10-11T02:41:38.106Z,956.67
2016-10-11T02:42:38.098Z,956.63
2016-10-11T02:43:38.083Z,956.63
2016-10-11T02:44:38.067Z,956.66
2016-10-11T02:45:38.058Z,956.63
2016-10-11T02:46:38.046Z,956.66
2016-10-11T02:47:38.030Z,956.66
2016-10-11T02:48:38.019Z,956.63
2016-10-11T02:49:38.005Z,956.64
2016-10-11T02:50:37.992Z,956.64
2016-10-11T02:51:37.980Z,956.58
2016-10-11T02:52:37.969Z,956.62
2016-10-11T02:53:37.958Z,956.59
2016-10-11T02:54:37.946Z,956.59
2016-10-11T02:55:37.929Z,956.59
2016-10-11T02:56:37.916Z,956.55
2016-10-11T02:57:37.905Z,956.56
2016-10-11T02:58:37.892Z,956.58
2016-10-11T02:59:37.879Z,956.58
2016-10-11T03:00:37.866Z,956.56
2016-10-11T03:01:37.854Z,956.53
2016-10-11T03:02:37.843Z,956.54
2016-10-11T03:03:37.828Z,956.57
2016-10-11T03:04:37.819Z,956.57
2016-10-11T03:05:37.802Z,956.55
2016-10-11T03:06:37.790Z,956.57
2016-10-11T03:07:37.780Z,956.57
2016-10-11T03:08:37.765Z,956.57
2016-10-11T03:09:37.762Z,956.59
2016-10-11T03:10:37.741Z,956.57
2016-10-11T03:11:37.725Z,956.57
2016-10-11T03:12:37.715Z,956.52
2016-10-11T03:13:37.703Z,956.56
2016-10-11T03:14:37.694Z,956.55
2016-10-11T03:15:37.681Z,956.55
2016-10-11T03:16:37.667Z,956.56
2016-10-11T03:17:37.652Z,956.54
2016-10-11T03:18:37.639Z,956.57
2016-10-11T03:19:37.628Z,956.54
2016-10-11T03:20:37.615Z,956.57
2016-10-11T03:21:37.601Z,956.52
2016-10-11T03:22:37.587Z,956.54
2016-10-11T03:23:37.579Z,956.54
2016-10-11T03:24:37.563Z,956.55
2016-10-11T03:25:37.553Z,956.51
2016-10-11T03:26:37.538Z,956.54
2016-10-11T03:27:37.526Z,956.56
2016-10-11T03:28:37.514Z,956.54
2016-10-11T03:29:37.500Z,956.56
2016-10-11T03:30:37.493Z,956.54
2016-10-11T03:31:37.477Z,956.53
2016-10-11T03:32:37.466Z,956.51
2016-10-11T03:33:37.458Z,956.57
2016-10-11T03:34:37.441Z,956.53
2016-10-11T03:35:37.432Z,956.5
2016-10-11T03:36:37.413Z,956.48
2016-10-11T03:37:37.400Z,956.48
2016-10-11T03:38:37.438Z,956.44
2016-10-11T03:39:37.374Z,956.49
2016-10-11T03:40:37.369Z,956.48
2016-10-11T03:41:37.351Z,956.46
2016-10-11T03:42:37.337Z,956.5
2016-10-11T03:43:37.326Z,956.47
2016-10-11T03:44:37.312Z,956.49
2016-10-11T03:45:37.300Z,956.45
2016-10-11T03:46:37.287Z,956.44
2016-10-11T03:47:37.274Z,956.45
2016-10-11T03:48:37.262Z,956.44
2016-10-11T03:49:37.254Z,956.45
2016-10-11T03:50:37.235Z,956.43
2016-10-11T03:51:37.224Z,956.41
2016-10-11T03:52:37.211Z,956.42
2016-10-11T03:53:37.201Z,956.45
2016-10-11T03:54:37.193Z,956.44
2016-10-11T03:55:37.175Z,956.42
2016-10-11T03:56:37.169Z,956.42
2016-10-11T03:57:37.150Z,956.42
2016-10-11T03:58:37.136Z,956.39
2016-10-11T03:59:37.123Z,956.36
2016-10-11T04:00:37.112Z,956.35
2016-10-11T04:01:37.105Z,956.36
2016-10-11T04:02:37.086Z,956.39
2016-10-11T04:03:37.073Z,956.39
2016-10-11T04:04:37.062Z,956.42
2016-10-11T04:05:37.049Z,956.34
2016-10-11T04:06:37.037Z,956.37
2016-10-11T04:07:37.025Z,956.39
2016-10-11T04:08:37.010Z,956.37
2016-10-11T04:09:36.996Z,956.37
2016-10-11T04:10:36.989Z,956.4
2016-10-11T04:11:36.971Z,956.38
2016-10-11T04:12:36.963Z,956.33
2016-10-11T04:13:36.946Z,956.31
2016-10-11T04:14:36.934Z,956.32
2016-10-11T04:15:36.924Z,956.29
2016-10-11T04:16:36.911Z,956.27
2016-10-11T04:17:36.904Z,956.25
2016-10-11T04:18:36.886Z,956.24
2016-10-11T04:19:36.872Z,956.26
2016-10-11T04:20:36.858Z,956.24
2016-10-11T04:21:36.849Z,956.24
2016-10-11T04:22:36.837Z,956.25
2016-10-11T04:23:36.819Z,956.26
2016-10-11T04:24:36.815Z,956.25
2016-10-11T04:25:36.793Z,956.22
2016-10-11T04:26:36.782Z,956.23
2016-10-11T04:27:36.774Z,956.25
2016-10-11T04:28:36.757Z,956.29
2016-10-11T04:29:36.744Z,956.26
2016-10-11T04:30:36.731Z,956.28
2016-10-11T04:31:36.719Z,956.25
2016-10-11T04:32:36.709Z,956.2
2016-10-11T04:33:36.695Z,956.26
2016-10-11T04:34:36.683Z,956.32
2016-10-11T04:35:36.671Z,956.26
2016-10-11T04:36:36.652Z,956.26
2016-10-11T04:37:36.645Z,956.28
2016-10-11T04:38:36.631Z,956.28
2016-10-11T04:39:36.614Z,956.26
2016-10-11T04:40:36.605Z,956.22
2016-10-11T04:41:36.590Z,956.25
2016-10-11T04:42:36.578Z,956.24
2016-10-11T04:43:36.576Z,956.29
2016-10-11T04:44:36.555Z,956.27
2016-10-11T04:45:36.540Z,956.29
2016-10-11T04:46:36.534Z,956.25
2016-10-11T04:47:36.514Z,956.24
2016-10-11T04:48:36.505Z,956.24
2016-10-11T04:49:36.492Z,956.28
2016-10-11T04:50:36.477Z,956.26
2016-10-11T04:51:36.471Z,956.24
2016-10-11T04:52:36.453Z,956.27
2016-10-11T04:53:36.443Z,956.2
2016-10-11T04:54:36.432Z,956.17
2016-10-11T04:55:36.414Z,956.2
2016-10-11T04:56:36.402Z,956.21
2016-10-11T04:57:36.388Z,956.2
2016-10-11T04:58:36.382Z,956.19
2016-10-11T04:59:36.370Z,956.17
2016-10-11T05:00:36.353Z,956.21
2016-10-11T05:01:36.338Z,956.19
2016-10-11T05:02:36.325Z,956.22
2016-10-11T05:03:36.318Z,956.2
2016-10-11T05:04:36.300Z,956.19
2016-10-11T05:05:36.289Z,956.19
2016-10-11T05:06:36.274Z,956.22
2016-10-11T05:07:36.262Z,956.21
2016-10-11T05:08:36.251Z,956.25
2016-10-11T05:09:36.237Z,956.23
2016-10-11T05:10:36.235Z,956.24
2016-10-11T05:11:36.212Z,956.21
2016-10-11T05:12:36.202Z,956.22
2016-10-11T05:13:36.190Z,956.25
2016-10-11T05:14:36.177Z,956.23
2016-10-11T05:15:36.165Z,956.25
2016-10-11T05:16:36.151Z,956.24
2016-10-11T05:17:36.153Z,956.23
2016-10-11T05:18:36.127Z,956.2
2016-10-11T05:19:36.112Z,956.24
2016-10-11T05:20:36.100Z,956.24
2016-10-11T05:21:36.089Z,956.26
2016-10-11T05:22:36.075Z,956.26
2016-10-11T05:23:36.063Z,956.24
2016-10-11T05:24:36.053Z,956.29
2016-10-11T05:25:36.038Z,956.22
2016-10-11T05:26:36.026Z,956.26
2016-10-11T05:27:36.011Z,956.23
2016-10-11T05:28:36.003Z,956.26
2016-10-11T05:29:35.996Z,956.25
2016-10-11T05:30:35.974Z,956.26
2016-10-11T05:31:35.969Z,956.29
2016-10-11T05:32:35.948Z,956.28
2016-10-11T05:33:35.936Z,956.24
2016-10-11T05:34:35.926Z,956.22
2016-10-11T05:35:35.914Z,956.25
2016-10-11T05:36:35.901Z,956.3
2016-10-11T05:37:35.882Z,956.27
2016-10-11T05:38:35.877Z,956.26
2016-10-11T05:39:35.862Z,956.3
2016-10-11T05:40:35.850Z,956.3
2016-10-11T05:41:35.842Z,956.34
2016-10-11T05:42:35.822Z,956.34
2016-10-11T05:43:35.814Z,956.29
2016-10-11T05:44:35.795Z,956.31
2016-10-11T05:45:35.791Z,956.29
2016-10-11T05:46:35.774Z,956.29
2016-10-11T05:47:35.760Z,956.3
2016-10-11T05:48:35.748Z,956.3
2016-10-11T05:49:35.742Z,956.27
2016-10-11T05:50:35.728Z,956.25
2016-10-11T05:51:35.710Z,956.29
2016-10-11T05:52:35.699Z,956.24
2016-10-11T05:53:35.692Z,956.22
2016-10-11T05:54:35.674Z,956.24
2016-10-11T05:55:35.678Z,956.21
2016-10-11T05:56:35.645Z,956.21
2016-10-11T05:57:35.635Z,956.21
2016-10-11T05:58:35.622Z,956.24
2016-10-11T05:59:35.615Z,956.23
2016-10-11T06:00:35.598Z,956.21
2016-10-11T06:01:35.583Z,956.26
2016-10-11T06:02:35.572Z,956.3
2016-10-11T06:03:35.570Z,956.24
2016-10-11T06:04:35.548Z,956.24
2016-10-11T06:05:35.534Z,956.25
2016-10-11T06:06:35.527Z,956.24
2016-10-11T06:07:35.509Z,956.25
2016-10-11T06:08:35.499Z,956.26
2016-10-11T06:09:35.492Z,956.26
2016-10-11T06:10:35.472Z,956.25
2016-10-11T06:11:35.459Z,956.28
2016-10-11T06:12:35.445Z,956.24
2016-10-11T06:13:35.450Z,956.23
2016-10-11T06:14:35.421Z,956.21
2016-10-11T06:15:35.459Z,956.23
2016-10-11T06:16:35.401Z,956.24
2016-10-11T06:17:35.395Z,956.24
2016-10-11T06:18:35.372Z,956.2
2016-10-11T06:19:35.373Z,956.22
2016-10-11T06:20:35.349Z,956.21
2016-10-11T06:21:35.339Z,956.26
2016-10-11T06:22:35.321Z,956.24
2016-10-11T06:23:35.320Z,956.26
2016-10-11T06:24:35.299Z,956.26
2016-10-11T06:25:35.284Z,956.27
2016-10-11T06:26:35.275Z,956.26
2016-10-11T06:27:35.271Z,956.24
2016-10-11T06:28:35.250Z,956.27
2016-10-11T06:29:35.236Z,956.28
2016-10-11T06:30:35.230Z,956.28
2016-10-11T06:31:35.222Z,956.24
2016-10-11T06:32:35.196Z,956.25
2016-10-11T06:33:35.209Z,956.23
2016-10-11T06:34:35.179Z,956.24
2016-10-11T06:35:35.162Z,956.2
2016-10-11T06:36:35.149Z,956.24
2016-10-11T06:37:35.146Z,956.26
2016-10-11T06:38:35.128Z,956.19
2016-10-11T06:39:35.114Z,956.21
2016-10-11T06:40:35.103Z,956.19
2016-10-11T06:41:35.102Z,956.21
2016-10-11T06:42:35.078Z,956.25
2016-10-11T06:43:35.065Z,956.25
2016-10-11T06:44:35.052Z,956.22
2016-10-11T06:45:35.050Z,956.24
2016-10-11T06:46:35.030Z,956.22
2016-10-11T06:47:35.016Z,956.21
2016-10-11T06:48:35.012Z,956.26
2016-10-11T06:49:34.995Z,956.24
2016-10-11T06:50:34.978Z,956.23
2016-10-11T06:51:34.991Z,956.21
2016-10-11T06:52:34.956Z,956.21
2016-10-11T06:53:34.948Z,956.21
2016-10-11T06:54:34.931Z,956.19
2016-10-11T06:55:34.923Z,956.24
2016-10-11T06:56:34.913Z,956.25
2016-10-11T06:57:34.894Z,956.23
2016-10-11T06:58:34.886Z,956.18
2016-10-11T06:59:34.868Z,956.24
2016-10-11T07:00:34.858Z,956.22
2016-10-11T07:01:34.847Z,956.19
2016-10-11T07:02:34.832Z,956.2
2016-10-11T07:03:34.821Z,956.19
2016-10-11T07:04:34.811Z,956.2
2016-10-11T07:05:34.800Z,956.16
2016-10-11T07:06:34.784Z,956.21
2016-10-11T07:07:34.774Z,956.18
2016-10-11T07:08:34.761Z,956.22
2016-10-11T07:09:34.753Z,956.21
2016-10-11T07:10:34.736Z,956.2
2016-10-11T07:11:34.729Z,956.22
2016-10-11T07:12:34.719Z,956.26
2016-10-11T07:13:34.700Z,956.24
2016-10-11T07:14:34.695Z,956.27
2016-10-11T07:15:34.676Z,956.25
2016-10-11T07:16:34.666Z,956.27
2016-10-11T07:17:34.652Z,956.25
2016-10-11T07:18:34.642Z,956.25
2016-10-11T07:19:34.628Z,956.22
2016-10-11T07:20:34.620Z,956.25
2016-10-11T07:21:34.605Z,956.25
2016-10-11T07:22:34.596Z,956.27
2016-10-11T07:23:34.584Z,956.29
2016-10-11T07:24:34.569Z,956.24
2016-10-11T07:25:34.563Z,956.22
2016-10-11T07:26:34.565Z,956.24
2016-10-11T07:27:34.535Z,956.23
2016-10-11T07:28:34.523Z,956.23
2016-10-11T07:29:34.511Z,956.19
2016-10-11T07:30:34.499Z,956.22
2016-10-11T07:31:34.487Z,956.18
2016-10-11T07:32:34.475Z,956.22
2016-10-11T07:33:34.532Z,956.23
2016-10-11T07:34:34.460Z,956.21
2016-10-11T07:35:34.439Z,956.22
2016-10-11T07:36:34.433Z,956.22
2016-10-11T07:37:34.418Z,956.23
2016-10-11T07:38:34.561Z,956.21
2016-10-11T07:39:34.395Z,956.2
2016-10-11T07:40:34.382Z,956.22
2016-10-11T07:41:34.374Z,956.21
2016-10-11T07:42:34.360Z,956.28
2016-10-11T07:43:34.349Z,956.25
2016-10-11T07:44:34.338Z,956.25
2016-10-11T07:45:34.330Z,956.22
2016-10-11T07:46:34.312Z,956.25
2016-10-11T07:47:34.308Z,956.24
2016-10-11T07:48:34.291Z,956.2
2016-10-11T07:49:34.282Z,956.24
2016-10-11T07:50:34.267Z,956.23
2016-10-11T07:51:34.263Z,956.23
2016-10-11T07:52:34.248Z,956.22
2016-10-11T07:53:34.234Z,956.19
2016-10-11T07:54:34.221Z,956.16
2016-10-11T07:55:34.208Z,956.23
2016-10-11T07:56:34.202Z,956.12
2016-10-11T07:57:34.186Z,956.16
2016-10-11T07:58:34.319Z,956.14
2016-10-11T07:59:34.164Z,956.11
2016-10-11T08:00:34.153Z,956.17
2016-10-11T08:01:34.140Z,956.12
2016-10-11T08:02:34.138Z,956.12
2016-10-11T08:03:34.121Z,956.14
2016-10-11T08:04:34.108Z,956.15
2016-10-11T08:05:34.094Z,956.11
2016-10-11T08:06:34.085Z,956.11
2016-10-11T08:07:34.075Z,956.11
2016-10-11T08:08:34.062Z,956.11
2016-10-11T08:09:34.054Z,956.15
2016-10-11T08:10:34.042Z,956.12
2016-10-11T08:11:34.028Z,956.12
2016-10-11T08:12:34.016Z,956.17
2016-10-11T08:13:34.013Z,956.18
2016-10-11T08:14:33.995Z,956.17
2016-10-11T08:15:33.993Z,956.16
2016-10-11T08:16:33.972Z,956.19
2016-10-11T08:17:33.962Z,956.17
2016-10-11T08:18:33.952Z,956.17
2016-10-11T08:19:33.938Z,956.17
2016-10-11T08:20:33.931Z,956.19
2016-10-11T08:21:33.923Z,956.2
2016-10-11T08:22:33.906Z,956.18
2016-10-11T08:23:33.894Z,956.18
2016-10-11T08:24:33.886Z,956.2
2016-10-11T08:25:33.873Z,956.23
2016-10-11T08:26:33.868Z,956.2
2016-10-11T08:27:33.851Z,956.17
2016-10-11T08:28:33.841Z,956.18
2016-10-11T08:29:33.830Z,956.16
2016-10-11T08:30:33.820Z,956.16
2016-10-11T08:31:33.809Z,956.11
2016-10-11T08:32:33.801Z,956.13
2016-10-11T08:33:33.788Z,956.12
2016-10-11T08:34:33.779Z,956.13
2016-10-11T08:35:33.767Z,956.12
2016-10-11T08:36:33.757Z,956.06
2016-10-11T08:37:33.748Z,956.09
2016-10-11T08:38:33.736Z,956.09
2016-10-11T08:39:33.725Z,956.06
2016-10-11T08:40:33.718Z,956.09
2016-10-11T08:41:33.704Z,956.05
2016-10-11T08:42:33.700Z,956.04
2016-10-11T08:43:33.688Z,956.07
2016-10-11T08:44:33.673Z,956.07
2016-10-11T08:45:33.663Z,956.07
2016-10-11T08:46:33.655Z,956.05
2016-10-11T08:47:33.640Z,956.07
2016-10-11T08:48:33.632Z,956.1
2016-10-11T08:49:33.617Z,956.11
2016-10-11T08:50:33.611Z,956.1
2016-10-11T08:51:33.594Z,956.12
2016-10-11T08:52:33.587Z,956.07
2016-10-11T08:53:33.575Z,956.11
2016-10-11T08:54:33.563Z,956.09
2016-10-11T08:55:33.562Z,956.09
2016-10-11T08:56:33.544Z,956.08
2016-10-11T08:57:33.531Z,956.05
2016-10-11T08:58:33.520Z,956.05
2016-10-11T08:59:33.511Z,956.03
2016-10-11T09:00:33.501Z,956.05
2016-10-11T09:01:33.486Z,956
2016-10-11T09:02:33.475Z,956.02
2016-10-11T09:03:33.467Z,956.03
2016-10-11T09:04:33.460Z,956.04
2016-10-11T09:05:33.446Z,956.05
2016-10-11T09:06:33.437Z,956.03
2016-10-11T09:07:33.423Z,956.02
2016-10-11T09:08:33.412Z,956.02
2016-10-11T09:09:33.401Z,956.05
2016-10-11T09:10:33.392Z,956.03
2016-10-11T09:11:33.380Z,956.05
2016-10-11T09:12:33.415Z,956.03
2016-10-11T09:13:33.355Z,956.03
2016-10-11T09:14:33.346Z,956.02
2016-10-11T09:15:33.342Z,956
2016-10-11T09:16:33.321Z,955.99
2016-10-11T09:17:33.315Z,955.95
2016-10-11T09:18:33.302Z,955.97
2016-10-11T09:19:33.292Z,955.98
2016-10-11T09:20:33.282Z,955.93
2016-10-11T09:21:33.275Z,955.96
2016-10-11T09:22:33.268Z,955.89
2016-10-11T09:23:33.254Z,955.9
2016-10-11T09:24:33.238Z,955.88
2016-10-11T09:25:33.226Z,955.9
2016-10-11T09:26:33.221Z,955.92
2016-10-11T09:27:33.205Z,955.85
2016-10-11T09:28:33.196Z,955.89
2016-10-11T09:29:33.185Z,955.84
2016-10-11T09:30:33.174Z,955.88
2016-10-11T09:31:33.163Z,955.87
2016-10-11T09:32:33.153Z,955.84
2016-10-11T09:33:33.143Z,955.87
2016-10-11T09:34:33.135Z,955.82
2016-10-11T09:35:33.124Z,955.82
2016-10-11T09:36:33.223Z,955.82
2016-10-11T09:37:33.101Z,955.83
2016-10-11T09:38:33.095Z,955.8
2016-10-11T09:39:33.080Z,955.82
2016-10-11T09:40:33.075Z,955.81
2016-10-11T09:41:33.062Z,955.79
2016-10-11T09:42:33.049Z,955.79
2016-10-11T09:43:33.038Z,955.71
2016-10-11T09:44:33.032Z,955.73
2016-10-11T09:45:33.028Z,955.74
2016-10-11T09:46:33.014Z,955.72
2016-10-11T09:47:33.000Z,955.69
2016-10-11T09:48:32.989Z,955.67
2016-10-11T09:49:32.979Z,955.74
2016-10-11T09:50:32.970Z,955.75
2016-10-11T09:51:32.957Z,955.75
2016-10-11T09:52:32.953Z,955.74
2016-10-11T09:53:32.938Z,955.74
2016-10-11T09:54:32.931Z,955.79
2016-10-11T09:55:32.919Z,955.74
2016-10-11T09:56:32.908Z,955.76
2016-10-11T09:57:32.896Z,955.73
2016-10-11T09:58:32.892Z,955.75
2016-10-11T09:59:32.877Z,955.76
2016-10-11T10:00:32.867Z,955.75
2016-10-11T10:01:32.858Z,955.76
2016-10-11T10:02:32.852Z,955.74
2016-10-11T10:03:32.839Z,955.74
2016-10-11T10:04:32.830Z,955.75
2016-10-11T10:05:32.818Z,955.8
2016-10-11T10:06:32.808Z,955.75
2016-10-11T10:07:32.798Z,955.77
2016-10-11T10:08:32.790Z,955.7
2016-10-11T10:09:32.779Z,955.68
2016-10-11T10:10:32.772Z,955.72
2016-10-11T10:11:32.760Z,955.72
2016-10-11T10:12:32.749Z,955.76
2016-10-11T10:13:32.741Z,955.74
2016-10-11T10:14:32.730Z,955.71
2016-10-11T10:15:32.722Z,955.79
2016-10-11T10:16:32.718Z,955.78
2016-10-11T10:17:32.701Z,955.74
2016-10-11T10:18:32.691Z,955.76
2016-10-11T10:19:32.681Z,955.76
2016-10-11T10:20:32.672Z,955.74
2016-10-11T10:21:32.662Z,955.74
2016-10-11T10:22:32.654Z,955.75
2016-10-11T10:23:32.641Z,955.73
2016-10-11T10:24:32.633Z,955.75
2016-10-11T10:25:32.625Z,955.77
2016-10-11T10:26:32.613Z,955.74
2016-10-11T10:27:32.607Z,955.73
2016-10-11T10:28:32.594Z,955.72
2016-10-11T10:29:32.590Z,955.68
2016-10-11T10:30:32.578Z,955.69
2016-10-11T10:31:32.565Z,955.63
2016-10-11T10:32:32.556Z,955.71
2016-10-11T10:33:32.546Z,955.7
2016-10-11T10:34:32.537Z,955.72
2016-10-11T10:35:32.529Z,955.66
2016-10-11T10:36:32.518Z,955.65
2016-10-11T10:37:32.508Z,955.61
2016-10-11T10:38:32.496Z,955.61
2016-10-11T10:39:32.487Z,955.65
2016-10-11T10:40:32.485Z,955.67
2016-10-11T10:41:32.471Z,955.61
2016-10-11T10:42:32.461Z,955.63
2016-10-11T10:43:32.447Z,955.63
2016-10-11T10:44:32.440Z,955.63
2016-10-11T10:45:32.430Z,955.63
2016-10-11T10:46:32.425Z,955.63
2016-10-11T10:47:32.412Z,955.64
2016-10-11T10:48:32.402Z,955.66
2016-10-11T10:49:32.393Z,955.67
2016-10-11T10:50:32.379Z,955.64
2016-10-11T10:51:32.369Z,955.63
2016-10-11T10:52:32.360Z,955.66
2016-10-11T10:53:32.351Z,955.59
2016-10-11T10:54:32.343Z,955.57
2016-10-11T10:55:32.334Z,955.63
2016-10-11T10:56:32.319Z,955.63
2016-10-11T10:57:32.306Z,955.62
2016-10-11T10:58:32.296Z,955.61
2016-10-11T10:59:32.285Z,955.6
2016-10-11T11:00:32.291Z,955.63
2016-10-11T11:01:32.265Z,955.6
2016-10-11T11:02:32.255Z,955.53
2016-10-11T11:03:32.244Z,955.57
2016-10-11T11:04:32.238Z,955.59
2016-10-11T11:05:32.227Z,955.54
2016-10-11T11:06:32.223Z,955.56
2016-10-11T11:07:32.204Z,955.55
2016-10-11T11:08:32.243Z,955.51
2016-10-11T11:09:32.184Z,955.58
2016-10-11T11:10:32.176Z,955.56
2016-10-11T11:11:32.164Z,955.52
2016-10-11T11:12:32.153Z,955.47
2016-10-11T11:13:32.142Z,955.49
2016-10-11T11:14:32.135Z,955.47
2016-10-11T11:15:32.127Z,955.5
2016-10-11T11:16:32.115Z,955.52
2016-10-11T11:17:32.103Z,955.53
2016-10-11T11:18:32.095Z,955.51
2016-10-11T11:19:32.083Z,955.5
2016-10-11T11:20:32.080Z,955.5
2016-10-11T11:21:32.061Z,955.52
2016-10-11T11:22:32.058Z,955.48
2016-10-11T11:23:32.044Z,955.48
2016-10-11T11:24:32.034Z,955.47
2016-10-11T11:25:32.022Z,955.49
2016-10-11T11:26:32.014Z,955.45
2016-10-11T11:27:32.006Z,955.47
2016-10-11T11:28:31.996Z,955.46
2016-10-11T11:29:31.984Z,955.42
2016-10-11T11:30:31.974Z,955.43
2016-10-11T11:31:31.973Z,955.43
2016-10-11T11:32:31.956Z,955.41
2016-10-11T11:33:31.945Z,955.4
2016-10-11T11:34:31.939Z,955.4
2016-10-11T11:35:31.926Z,955.41
2016-10-11T11:36:31.918Z,955.42
2016-10-11T11:37:31.907Z,955.41
2016-10-11T11:38:31.896Z,955.39
2016-10-11T11:39:31.887Z,955.35
2016-10-11T11:40:31.882Z,955.38
2016-10-11T11:41:31.869Z,955.36
2016-10-11T11:42:31.862Z,955.34
2016-10-11T11:43:31.862Z,955.34
2016-10-11T11:44:31.844Z,955.31
2016-10-11T11:45:31.833Z,955.33
2016-10-11T11:46:31.824Z,955.37
2016-10-11T11:47:31.812Z,955.36
2016-10-11T11:48:31.804Z,955.37
2016-10-11T11:49:31.799Z,955.37
2016-10-11T11:50:31.782Z,955.31
2016-10-11T11:51:31.776Z,955.3
2016-10-11T11:52:31.762Z,955.27
2016-10-11T11:53:31.758Z,955.29
2016-10-11T11:54:31.744Z,955.29
2016-10-11T11:55:31.734Z,955.32
2016-10-11T11:56:31.722Z,955.34
2016-10-11T11:57:31.712Z,955.35
2016-10-11T11:58:31.703Z,955.32
2016-10-11T11:59:31.693Z,955.44
2016-10-11T12:00:31.683Z,955.42
2016-10-11T12:01:31.672Z,955.39
2016-10-11T12:02:31.659Z,955.43
2016-10-11T12:03:31.649Z,955.4
2016-10-11T12:04:31.645Z,955.39
2016-10-11T12:05:31.626Z,955.37
2016-10-11T12:06:31.618Z,955.34
2016-10-11T12:07:31.607Z,955.32
2016-10-11T12:08:31.598Z,955.32
2016-10-11T12:09:31.588Z,955.38
2016-10-11T12:10:31.573Z,955.35
2016-10-11T12:11:31.564Z,955.35
2016-10-11T12:12:31.550Z,955.32
2016-10-11T12:13:31.539Z,955.35
2016-10-11T12:14:31.532Z,955.34
2016-10-11T12:15:31.516Z,955.34
2016-10-11T12:16:31.504Z,955.4
2016-10-11T12:17:31.490Z,955.38
2016-10-11T12:18:31.482Z,955.38
2016-10-11T12:19:31.471Z,955.35
2016-10-11T12:20:31.457Z,955.35
2016-10-11T12:21:31.445Z,955.35
2016-10-11T12:22:31.434Z,955.36
2016-10-11T12:23:31.419Z,955.33
2016-10-11T12:24:31.407Z,955.3
2016-10-11T12:25:31.399Z,955.33
2016-10-11T12:26:31.386Z,955.3
2016-10-11T12:27:31.371Z,955.32
2016-10-11T12:28:31.359Z,955.29
2016-10-11T12:29:31.353Z,955.29
2016-10-11T12:30:31.333Z,955.28